sensor_id;sensor_type;location;lat;lon;timestamp;temperature;humidity
54788;DHT22;59598;48.112;16.280;2023-04-03T00:00:08;4.90;1.00
54788;DHT22;59598;48.112;16.280;2023-04-03T00:02:42;4.90;99.90
54788;DHT22;59598;48.112;16.280;2023-04-03T00:05:13;4.90;99.90
54788;DHT22;59598;48.112;16.280;2023-04-03T00:07:48;4.90;99.90
54788;DHT22;59598;48.112;16.280;2023-04-03T00:10:25;4.90;99.90
54788;DHT22;59598;48.112;16.280;2023-04-03T00:13:05;4.90;99.90
54788;DHT22;59598;48.112;16.280;2023-04-03T00:15:42;4.90;99.90
54788;DHT22;59598;48.112;16.280;2023-04-03T00:18:15;4.90;99.90
54788;DHT22;59598;48.112;16.280;2023-04-03T00:20:47;4.90;99.90
54788;DHT22;59598;48.112;16.280;2023-04-03T00:23:24;4.90;99.90
54788;DHT22;59598;48.112;16.280;2023-04-03T00:25:58;4.90;99.90
54788;DHT22;59598;48.112;16.280;2023-04-03T00:28:35;4.90;99.90
54788;DHT22;59598;48.112;16.280;2023-04-03T00:31:09;4.90;99.90
54788;DHT22;59598;48.112;16.280;2023-04-03T00:33:40;4.90;99.90
54788;DHT22;59598;48.112;16.280;2023-04-03T00:36:13;4.90;99.90
54788;DHT22;59598;48.112;16.280;2023-04-03T00:38:44;4.90;1.00
54788;DHT22;59598;48.112;16.280;2023-04-03T00:41:15;4.80;1.00
54788;DHT22;59598;48.112;16.280;2023-04-03T00:43:46;4.90;99.90
54788;DHT22;59598;48.112;16.280;2023-04-03T00:46:25;4.80;1.00
54788;DHT22;59598;48.112;16.280;2023-04-03T00:49:01;4.80;1.00
54788;DHT22;59598;48.112;16.280;2023-04-03T00:51:35;4.80;1.00
54788;DHT22;59598;48.112;16.280;2023-04-03T00:54:08;4.80;1.00
54788;DHT22;59598;48.112;16.280;2023-04-03T00:56:39;4.80;1.00
54788;DHT22;59598;48.112;16.280;2023-04-03T00:59:31;4.80;1.00
54788;DHT22;59598;48.112;16.280;2023-04-03T01:02:09;4.80;1.00
54788;DHT22;59598;48.112;16.280;2023-04-03T01:04:43;4.80;1.00
54788;DHT22;59598;48.112;16.280;2023-04-03T01:07:27;4.80;1.00
54788;DHT22;59598;48.112;16.280;2023-04-03T01:10:09;4.80;1.00
54788;DHT22;59598;48.112;16.280;2023-04-03T01:12:43;4.80;1.00
54788;DHT22;59598;48.112;16.280;2023-04-03T01:15:23;4.80;1.00
54788;DHT22;59598;48.112;16.280;2023-04-03T01:17:58;4.70;1.00
54788;DHT22;59598;48.112;16.280;2023-04-03T01:25:52;4.80;1.00
54788;DHT22;59598;48.112;16.280;2023-04-03T01:28:29;4.70;1.00
54788;DHT22;59598;48.112;16.280;2023-04-03T01:31:25;4.70;1.00
54788;DHT22;59598;48.112;16.280;2023-04-03T01:34:01;4.70;1.00
54788;DHT22;59598;48.112;16.280;2023-04-03T01:36:33;4.70;1.00
54788;DHT22;59598;48.112;16.280;2023-04-03T01:39:04;4.70;1.00
54788;DHT22;59598;48.112;16.280;2023-04-03T01:41:38;4.70;1.00
54788;DHT22;59598;48.112;16.280;2023-04-03T01:44:12;4.70;1.00
54788;DHT22;59598;48.112;16.280;2023-04-03T01:46:48;4.70;1.00
54788;DHT22;59598;48.112;16.280;2023-04-03T01:49:20;4.60;1.00
54788;DHT22;59598;48.112;16.280;2023-04-03T01:51:51;4.70;1.00
54788;DHT22;59598;48.112;16.280;2023-04-03T01:54:25;4.70;1.00
54788;DHT22;59598;48.112;16.280;2023-04-03T01:57:00;4.70;1.00
54788;DHT22;59598;48.112;16.280;2023-04-03T01:59:31;4.60;1.00
54788;DHT22;59598;48.112;16.280;2023-04-03T02:02:03;4.60;1.00
54788;DHT22;59598;48.112;16.280;2023-04-03T02:04:34;4.60;1.00
54788;DHT22;59598;48.112;16.280;2023-04-03T02:07:08;4.60;1.00
54788;DHT22;59598;48.112;16.280;2023-04-03T02:09:39;4.60;1.00
54788;DHT22;59598;48.112;16.280;2023-04-03T02:12:13;4.60;1.00
54788;DHT22;59598;48.112;16.280;2023-04-03T02:14:47;4.60;1.00
54788;DHT22;59598;48.112;16.280;2023-04-03T02:17:18;4.70;1.00
54788;DHT22;59598;48.112;16.280;2023-04-03T02:19:49;4.60;1.00
54788;DHT22;59598;48.112;16.280;2023-04-03T02:22:23;4.60;1.00
54788;DHT22;59598;48.112;16.280;2023-04-03T02:24:54;4.60;1.00
54788;DHT22;59598;48.112;16.280;2023-04-03T02:27:28;4.60;1.00
54788;DHT22;59598;48.112;16.280;2023-04-03T02:30:00;4.60;1.00
54788;DHT22;59598;48.112;16.280;2023-04-03T02:32:33;4.60;1.00
54788;DHT22;59598;48.112;16.280;2023-04-03T02:35:07;4.60;1.00
54788;DHT22;59598;48.112;16.280;2023-04-03T02:37:45;4.60;1.00
54788;DHT22;59598;48.112;16.280;2023-04-03T02:40:17;4.60;1.00
54788;DHT22;59598;48.112;16.280;2023-04-03T02:42:48;4.60;1.00
54788;DHT22;59598;48.112;16.280;2023-04-03T02:45:20;4.60;1.00
54788;DHT22;59598;48.112;16.280;2023-04-03T02:47:52;4.60;1.00
54788;DHT22;59598;48.112;16.280;2023-04-03T02:50:28;4.60;1.00
54788;DHT22;59598;48.112;16.280;2023-04-03T02:53:20;4.50;1.00
54788;DHT22;59598;48.112;16.280;2023-04-03T02:55:51;4.60;1.00
54788;DHT22;59598;48.112;16.280;2023-04-03T02:58:24;4.60;1.00
54788;DHT22;59598;48.112;16.280;2023-04-03T03:00:58;4.60;1.00
54788;DHT22;59598;48.112;16.280;2023-04-03T03:03:29;4.60;1.00
54788;DHT22;59598;48.112;16.280;2023-04-03T03:06:07;4.60;1.00
54788;DHT22;59598;48.112;16.280;2023-04-03T03:08:40;4.60;1.00
54788;DHT22;59598;48.112;16.280;2023-04-03T03:11:14;4.60;1.00
54788;DHT22;59598;48.112;16.280;2023-04-03T03:13:45;4.60;1.00
54788;DHT22;59598;48.112;16.280;2023-04-03T03:16:22;4.60;1.00
54788;DHT22;59598;48.112;16.280;2023-04-03T03:18:54;4.60;1.00
54788;DHT22;59598;48.112;16.280;2023-04-03T03:21:25;4.60;1.00
54788;DHT22;59598;48.112;16.280;2023-04-03T03:23:59;4.60;1.00
54788;DHT22;59598;48.112;16.280;2023-04-03T03:26:32;4.60;1.00
54788;DHT22;59598;48.112;16.280;2023-04-03T03:29:04;4.50;1.00
54788;DHT22;59598;48.112;16.280;2023-04-03T03:31:35;4.50;1.00
54788;DHT22;59598;48.112;16.280;2023-04-03T03:34:06;4.50;1.00
54788;DHT22;59598;48.112;16.280;2023-04-03T03:36:38;4.60;1.00
54788;DHT22;59598;48.112;16.280;2023-04-03T03:39:12;4.60;1.00
54788;DHT22;59598;48.112;16.280;2023-04-03T03:41:43;4.60;1.00
54788;DHT22;59598;48.112;16.280;2023-04-03T03:44:14;4.50;1.00
54788;DHT22;59598;48.112;16.280;2023-04-03T03:46:46;4.50;1.00
54788;DHT22;59598;48.112;16.280;2023-04-03T03:49:25;4.50;1.00
54788;DHT22;59598;48.112;16.280;2023-04-03T03:51:57;4.60;1.00
54788;DHT22;59598;48.112;16.280;2023-04-03T03:54:28;4.60;1.00
54788;DHT22;59598;48.112;16.280;2023-04-03T03:57:03;4.50;1.00
54788;DHT22;59598;48.112;16.280;2023-04-03T03:59:34;4.50;1.00
54788;DHT22;59598;48.112;16.280;2023-04-03T04:02:06;4.50;1.00
54788;DHT22;59598;48.112;16.280;2023-04-03T04:04:39;4.50;1.00
54788;DHT22;59598;48.112;16.280;2023-04-03T04:07:11;4.50;1.00
54788;DHT22;59598;48.112;16.280;2023-04-03T04:09:42;4.50;1.00
54788;DHT22;59598;48.112;16.280;2023-04-03T04:12:13;4.50;1.00
54788;DHT22;59598;48.112;16.280;2023-04-03T04:14:47;4.50;1.00
54788;DHT22;59598;48.112;16.280;2023-04-03T04:17:19;4.50;1.00
54788;DHT22;59598;48.112;16.280;2023-04-03T04:19:55;4.50;1.00
54788;DHT22;59598;48.112;16.280;2023-04-03T04:22:27;4.50;1.00
54788;DHT22;59598;48.112;16.280;2023-04-03T04:25:02;4.50;1.00
54788;DHT22;59598;48.112;16.280;2023-04-03T04:27:37;4.50;1.00
54788;DHT22;59598;48.112;16.280;2023-04-03T04:30:16;4.50;1.00
54788;DHT22;59598;48.112;16.280;2023-04-03T04:32:47;4.50;1.00
54788;DHT22;59598;48.112;16.280;2023-04-03T04:35:20;4.50;1.00
54788;DHT22;59598;48.112;16.280;2023-04-03T04:37:52;4.40;1.00
54788;DHT22;59598;48.112;16.280;2023-04-03T04:40:28;4.40;1.00
54788;DHT22;59598;48.112;16.280;2023-04-03T04:43:01;4.40;1.00
54788;DHT22;59598;48.112;16.280;2023-04-03T04:45:35;4.40;1.00
54788;DHT22;59598;48.112;16.280;2023-04-03T04:48:12;4.40;1.00
54788;DHT22;59598;48.112;16.280;2023-04-03T04:50:43;4.40;1.00
54788;DHT22;59598;48.112;16.280;2023-04-03T04:53:17;4.40;1.00
54788;DHT22;59598;48.112;16.280;2023-04-03T04:55:52;4.40;1.00
54788;DHT22;59598;48.112;16.280;2023-04-03T04:58:27;4.40;1.00
54788;DHT22;59598;48.112;16.280;2023-04-03T05:01:09;4.40;1.00
54788;DHT22;59598;48.112;16.280;2023-04-03T05:03:44;4.40;1.00
54788;DHT22;59598;48.112;16.280;2023-04-03T05:06:17;4.40;1.00
54788;DHT22;59598;48.112;16.280;2023-04-03T05:08:53;4.40;1.00
54788;DHT22;59598;48.112;16.280;2023-04-03T05:11:24;4.40;1.00
54788;DHT22;59598;48.112;16.280;2023-04-03T05:14:00;4.40;1.00
54788;DHT22;59598;48.112;16.280;2023-04-03T05:16:33;4.40;1.00
54788;DHT22;59598;48.112;16.280;2023-04-03T05:19:19;4.30;1.00
54788;DHT22;59598;48.112;16.280;2023-04-03T05:21:50;4.30;1.00
54788;DHT22;59598;48.112;16.280;2023-04-03T05:24:25;4.30;1.00
54788;DHT22;59598;48.112;16.280;2023-04-03T05:26:59;4.30;1.00
54788;DHT22;59598;48.112;16.280;2023-04-03T05:29:36;4.30;1.00
54788;DHT22;59598;48.112;16.280;2023-04-03T05:32:12;4.20;1.00
54788;DHT22;59598;48.112;16.280;2023-04-03T05:34:46;4.20;1.00
54788;DHT22;59598;48.112;16.280;2023-04-03T05:37:19;4.20;1.00
54788;DHT22;59598;48.112;16.280;2023-04-03T05:39:55;4.20;1.00
54788;DHT22;59598;48.112;16.280;2023-04-03T05:42:26;4.30;1.00
54788;DHT22;59598;48.112;16.280;2023-04-03T05:44:57;4.30;1.00
54788;DHT22;59598;48.112;16.280;2023-04-03T05:47:31;4.30;1.00
54788;DHT22;59598;48.112;16.280;2023-04-03T05:50:05;4.30;1.00
54788;DHT22;59598;48.112;16.280;2023-04-03T05:52:44;4.30;1.00
54788;DHT22;59598;48.112;16.280;2023-04-03T05:55:16;4.30;1.00
54788;DHT22;59598;48.112;16.280;2023-04-03T05:57:47;4.30;1.00
54788;DHT22;59598;48.112;16.280;2023-04-03T06:00:21;4.30;1.00
54788;DHT22;59598;48.112;16.280;2023-04-03T06:02:53;4.40;1.00
54788;DHT22;59598;48.112;16.280;2023-04-03T06:05:24;4.40;1.00
54788;DHT22;59598;48.112;16.280;2023-04-03T06:07:55;4.40;1.00
54788;DHT22;59598;48.112;16.280;2023-04-03T06:10:28;4.40;1.00
54788;DHT22;59598;48.112;16.280;2023-04-03T06:12:59;4.40;1.00
54788;DHT22;59598;48.112;16.280;2023-04-03T06:15:33;4.40;1.00
54788;DHT22;59598;48.112;16.280;2023-04-03T06:18:04;4.40;1.00
54788;DHT22;59598;48.112;16.280;2023-04-03T06:20:36;4.40;1.00
54788;DHT22;59598;48.112;16.280;2023-04-03T06:23:07;4.30;1.00
54788;DHT22;59598;48.112;16.280;2023-04-03T06:25:38;4.40;1.00
54788;DHT22;59598;48.112;16.280;2023-04-03T06:28:12;4.30;1.00
54788;DHT22;59598;48.112;16.280;2023-04-03T06:30:44;4.40;1.00
54788;DHT22;59598;48.112;16.280;2023-04-03T06:33:17;4.40;1.00
54788;DHT22;59598;48.112;16.280;2023-04-03T06:35:49;4.50;1.00
54788;DHT22;59598;48.112;16.280;2023-04-03T06:38:20;4.40;1.00
54788;DHT22;59598;48.112;16.280;2023-04-03T06:40:52;4.30;1.00
54788;DHT22;59598;48.112;16.280;2023-04-03T06:43:23;4.40;1.00
54788;DHT22;59598;48.112;16.280;2023-04-03T06:45:55;4.40;1.00
54788;DHT22;59598;48.112;16.280;2023-04-03T06:48:26;4.40;1.00
54788;DHT22;59598;48.112;16.280;2023-04-03T06:51:00;4.40;1.00
54788;DHT22;59598;48.112;16.280;2023-04-03T06:53:32;4.40;1.00
54788;DHT22;59598;48.112;16.280;2023-04-03T06:56:04;4.50;99.90
54788;DHT22;59598;48.112;16.280;2023-04-03T06:58:40;4.50;99.90
54788;DHT22;59598;48.112;16.280;2023-04-03T07:01:16;4.40;99.90
54788;DHT22;59598;48.112;16.280;2023-04-03T07:03:51;4.50;99.90
54788;DHT22;59598;48.112;16.280;2023-04-03T07:06:25;4.50;99.90
54788;DHT22;59598;48.112;16.280;2023-04-03T07:08:57;4.40;99.90
54788;DHT22;59598;48.112;16.280;2023-04-03T07:11:29;4.50;99.90
54788;DHT22;59598;48.112;16.280;2023-04-03T07:14:03;4.60;99.90
54788;DHT22;59598;48.112;16.280;2023-04-03T07:16:35;4.60;99.90
54788;DHT22;59598;48.112;16.280;2023-04-03T07:19:06;4.70;99.90
54788;DHT22;59598;48.112;16.280;2023-04-03T07:21:39;4.70;99.90
54788;DHT22;59598;48.112;16.280;2023-04-03T07:24:12;4.70;99.90
54788;DHT22;59598;48.112;16.280;2023-04-03T07:26:52;4.60;99.90
54788;DHT22;59598;48.112;16.280;2023-04-03T07:29:23;4.60;99.90
54788;DHT22;59598;48.112;16.280;2023-04-03T07:31:57;4.70;99.90
54788;DHT22;59598;48.112;16.280;2023-04-03T07:34:29;4.80;99.90
54788;DHT22;59598;48.112;16.280;2023-04-03T07:37:04;4.70;99.90
54788;DHT22;59598;48.112;16.280;2023-04-03T07:39:35;4.80;99.90
54788;DHT22;59598;48.112;16.280;2023-04-03T07:42:07;4.70;99.90
54788;DHT22;59598;48.112;16.280;2023-04-03T07:44:38;5.00;99.90
54788;DHT22;59598;48.112;16.280;2023-04-03T07:47:09;5.10;99.90
54788;DHT22;59598;48.112;16.280;2023-04-03T07:49:41;5.40;99.90
54788;DHT22;59598;48.112;16.280;2023-04-03T07:52:14;5.50;1.00
54788;DHT22;59598;48.112;16.280;2023-04-03T07:54:46;5.30;1.00
54788;DHT22;59598;48.112;16.280;2023-04-03T07:57:18;5.20;1.00
54788;DHT22;59598;48.112;16.280;2023-04-03T07:59:51;5.30;1.00
54788;DHT22;59598;48.112;16.280;2023-04-03T08:02:24;5.60;1.00
54788;DHT22;59598;48.112;16.280;2023-04-03T08:04:58;5.60;1.00
54788;DHT22;59598;48.112;16.280;2023-04-03T08:07:32;5.50;1.00
54788;DHT22;59598;48.112;16.280;2023-04-03T08:10:04;5.30;1.00
54788;DHT22;59598;48.112;16.280;2023-04-03T08:12:38;5.40;1.00
54788;DHT22;59598;48.112;16.280;2023-04-03T08:15:10;5.60;1.00
54788;DHT22;59598;48.112;16.280;2023-04-03T08:17:41;5.80;1.00
54788;DHT22;59598;48.112;16.280;2023-04-03T08:20:17;6.10;1.00
54788;DHT22;59598;48.112;16.280;2023-04-03T08:22:48;5.90;1.00
54788;DHT22;59598;48.112;16.280;2023-04-03T08:25:22;5.80;1.00
54788;DHT22;59598;48.112;16.280;2023-04-03T08:27:53;5.70;1.00
54788;DHT22;59598;48.112;16.280;2023-04-03T08:30:27;5.80;1.00
54788;DHT22;59598;48.112;16.280;2023-04-03T08:33:01;5.90;1.00
54788;DHT22;59598;48.112;16.280;2023-04-03T08:35:40;6.20;1.00
54788;DHT22;59598;48.112;16.280;2023-04-03T08:38:12;6.10;1.00
54788;DHT22;59598;48.112;16.280;2023-04-03T08:40:46;6.40;99.90
54788;DHT22;59598;48.112;16.280;2023-04-03T08:46:26;6.70;1.00
54788;DHT22;59598;48.112;16.280;2023-04-03T08:48:59;6.80;1.00
54788;DHT22;59598;48.112;16.280;2023-04-03T08:51:33;6.80;1.00
54788;DHT22;59598;48.112;16.280;2023-04-03T08:54:09;6.60;1.00
54788;DHT22;59598;48.112;16.280;2023-04-03T08:56:46;6.90;1.00
54788;DHT22;59598;48.112;16.280;2023-04-03T08:59:24;7.30;14.30
54788;DHT22;59598;48.112;16.280;2023-04-03T09:01:57;7.30;1.00
54788;DHT22;59598;48.112;16.280;2023-04-03T09:04:31;7.10;47.70
54788;DHT22;59598;48.112;16.280;2023-04-03T09:07:14;6.70;26.10
54788;DHT22;59598;48.112;16.280;2023-04-03T09:09:50;7.10;11.30
54788;DHT22;59598;48.112;16.280;2023-04-03T09:12:32;7.20;1.00
54788;DHT22;59598;48.112;16.280;2023-04-03T09:15:20;7.20;1.00
54788;DHT22;59598;48.112;16.280;2023-04-03T09:20:58;7.50;1.00
54788;DHT22;59598;48.112;16.280;2023-04-03T09:23:51;7.00;1.00
54788;DHT22;59598;48.112;16.280;2023-04-03T09:26:29;6.80;1.00
54788;DHT22;59598;48.112;16.280;2023-04-03T09:29:05;6.30;1.00
54788;DHT22;59598;48.112;16.280;2023-04-03T09:31:42;6.50;1.00
54788;DHT22;59598;48.112;16.280;2023-04-03T09:34:27;6.60;1.00
54788;DHT22;59598;48.112;16.280;2023-04-03T09:37:04;6.40;1.00
54788;DHT22;59598;48.112;16.280;2023-04-03T09:39:52;6.60;1.00
54788;DHT22;59598;48.112;16.280;2023-04-03T09:42:27;6.40;8.90
54788;DHT22;59598;48.112;16.280;2023-04-03T09:45:03;6.00;1.00
54788;DHT22;59598;48.112;16.280;2023-04-03T09:47:36;6.00;1.00
54788;DHT22;59598;48.112;16.280;2023-04-03T09:52:52;5.70;25.50
54788;DHT22;59598;48.112;16.280;2023-04-03T09:55:26;5.70;22.30
54788;DHT22;59598;48.112;16.280;2023-04-03T09:58:04;5.60;3.00
54788;DHT22;59598;48.112;16.280;2023-04-03T10:00:40;5.80;12.60
54788;DHT22;59598;48.112;16.280;2023-04-03T10:03:30;6.20;26.90
54788;DHT22;59598;48.112;16.280;2023-04-03T10:06:03;6.30;25.30
54788;DHT22;59598;48.112;16.280;2023-04-03T10:08:35;6.20;1.00
54788;DHT22;59598;48.112;16.280;2023-04-03T10:11:07;6.30;32.70
54788;DHT22;59598;48.112;16.280;2023-04-03T10:13:59;6.80;28.60
54788;DHT22;59598;48.112;16.280;2023-04-03T10:16:51;6.70;36.50
54788;DHT22;59598;48.112;16.280;2023-04-03T10:22:52;6.70;45.90
54788;DHT22;59598;48.112;16.280;2023-04-03T10:34:11;6.20;1.00
54788;DHT22;59598;48.112;16.280;2023-04-03T10:37:08;6.90;1.00
54788;DHT22;59598;48.112;16.280;2023-04-03T10:48:07;7.70;1.00
54788;DHT22;59598;48.112;16.280;2023-04-03T10:53:44;6.70;1.00
54788;DHT22;59598;48.112;16.280;2023-04-03T10:59:38;6.80;1.00
54788;DHT22;59598;48.112;16.280;2023-04-03T11:02:24;7.30;1.00
54788;DHT22;59598;48.112;16.280;2023-04-03T11:07:59;8.20;1.00
54788;DHT22;59598;48.112;16.280;2023-04-03T11:10:45;7.50;1.00
54788;DHT22;59598;48.112;16.280;2023-04-03T11:13:22;8.40;1.00
54788;DHT22;59598;48.112;16.280;2023-04-03T11:16:00;8.80;1.00
54788;DHT22;59598;48.112;16.280;2023-04-03T11:18:56;9.60;1.00
54788;DHT22;59598;48.112;16.280;2023-04-03T11:21:54;9.70;1.00
54788;DHT22;59598;48.112;16.280;2023-04-03T11:24:36;10.20;62.30
54788;DHT22;59598;48.112;16.280;2023-04-03T11:27:17;10.80;53.70
54788;DHT22;59598;48.112;16.280;2023-04-03T11:29:54;9.70;64.70
54788;DHT22;59598;48.112;16.280;2023-04-03T11:33:00;9.70;44.50
54788;DHT22;59598;48.112;16.280;2023-04-03T11:35:33;10.00;58.10
54788;DHT22;59598;48.112;16.280;2023-04-03T11:38:06;9.80;45.10
54788;DHT22;59598;48.112;16.280;2023-04-03T11:40:40;9.40;59.70
54788;DHT22;59598;48.112;16.280;2023-04-03T11:43:28;10.50;74.00
54788;DHT22;59598;48.112;16.280;2023-04-03T11:46:06;10.30;75.00
54788;DHT22;59598;48.112;16.280;2023-04-03T11:48:45;9.90;72.60
54788;DHT22;59598;48.112;16.280;2023-04-03T11:53:53;9.60;90.60
54788;DHT22;59598;48.112;16.280;2023-04-03T12:01:45;10.70;99.90
54788;DHT22;59598;48.112;16.280;2023-04-03T12:04:20;10.40;1.00
54788;DHT22;59598;48.112;16.280;2023-04-03T12:07:34;9.60;1.00
54788;DHT22;59598;48.112;16.280;2023-04-03T12:12:40;10.00;99.90
54788;DHT22;59598;48.112;16.280;2023-04-03T12:15:41;7.60;99.90
54788;DHT22;59598;48.112;16.280;2023-04-03T12:18:43;6.80;1.00
54788;DHT22;59598;48.112;16.280;2023-04-03T12:24:32;7.40;99.90
54788;DHT22;59598;48.112;16.280;2023-04-03T12:30:18;6.40;99.90
54788;DHT22;59598;48.112;16.280;2023-04-03T12:36:02;5.90;99.90
54788;DHT22;59598;48.112;16.280;2023-04-03T12:41:37;5.80;99.90
54788;DHT22;59598;48.112;16.280;2023-04-03T12:44:20;6.10;99.90
54788;DHT22;59598;48.112;16.280;2023-04-03T12:47:00;6.00;1.00
54788;DHT22;59598;48.112;16.280;2023-04-03T12:52:39;6.30;99.90
54788;DHT22;59598;48.112;16.280;2023-04-03T12:55:17;5.60;99.90
54788;DHT22;59598;48.112;16.280;2023-04-03T12:57:51;5.60;27.90
54788;DHT22;59598;48.112;16.280;2023-04-03T13:00:34;5.70;99.90
54788;DHT22;59598;48.112;16.280;2023-04-03T13:03:06;5.40;99.90
54788;DHT22;59598;48.112;16.280;2023-04-03T13:05:50;5.30;99.90
54788;DHT22;59598;48.112;16.280;2023-04-03T13:08:24;5.50;99.90
54788;DHT22;59598;48.112;16.280;2023-04-03T13:11:11;5.70;99.90
54788;DHT22;59598;48.112;16.280;2023-04-03T13:14:19;5.80;1.00
54788;DHT22;59598;48.112;16.280;2023-04-03T13:17:03;6.30;1.00
54788;DHT22;59598;48.112;16.280;2023-04-03T13:19:38;6.70;99.90
54788;DHT22;59598;48.112;16.280;2023-04-03T13:22:33;6.40;1.00
54788;DHT22;59598;48.112;16.280;2023-04-03T13:25:14;6.20;1.00
54788;DHT22;59598;48.112;16.280;2023-04-03T13:27:55;6.10;99.90
54788;DHT22;59598;48.112;16.280;2023-04-03T13:30:32;6.30;99.90
54788;DHT22;59598;48.112;16.280;2023-04-03T13:33:06;6.80;99.90
54788;DHT22;59598;48.112;16.280;2023-04-03T13:38:37;6.90;1.00
54788;DHT22;59598;48.112;16.280;2023-04-03T13:41:39;6.40;1.00
54788;DHT22;59598;48.112;16.280;2023-04-03T13:47:17;6.20;1.00
54788;DHT22;59598;48.112;16.280;2023-04-03T13:55:24;7.80;99.90
54788;DHT22;59598;48.112;16.280;2023-04-03T13:58:00;9.00;1.00
54788;DHT22;59598;48.112;16.280;2023-04-03T14:00:34;8.40;1.00
54788;DHT22;59598;48.112;16.280;2023-04-03T14:03:42;8.60;99.90
54788;DHT22;59598;48.112;16.280;2023-04-03T14:06:15;7.60;99.90
54788;DHT22;59598;48.112;16.280;2023-04-03T14:08:48;7.60;99.90
54788;DHT22;59598;48.112;16.280;2023-04-03T14:11:28;7.30;99.90
54788;DHT22;59598;48.112;16.280;2023-04-03T14:14:12;6.90;99.90
54788;DHT22;59598;48.112;16.280;2023-04-03T14:16:48;6.40;99.90
54788;DHT22;59598;48.112;16.280;2023-04-03T14:19:27;6.50;99.90
54788;DHT22;59598;48.112;16.280;2023-04-03T14:22:14;6.20;99.90
54788;DHT22;59598;48.112;16.280;2023-04-03T14:24:47;6.10;99.90
54788;DHT22;59598;48.112;16.280;2023-04-03T14:27:22;6.00;99.90
54788;DHT22;59598;48.112;16.280;2023-04-03T14:29:57;6.10;99.90
54788;DHT22;59598;48.112;16.280;2023-04-03T14:32:29;6.10;99.90
54788;DHT22;59598;48.112;16.280;2023-04-03T14:35:00;7.80;99.90
54788;DHT22;59598;48.112;16.280;2023-04-03T14:37:32;7.20;99.90
54788;DHT22;59598;48.112;16.280;2023-04-03T14:40:06;6.90;99.90
54788;DHT22;59598;48.112;16.280;2023-04-03T14:42:38;6.70;99.90
54788;DHT22;59598;48.112;16.280;2023-04-03T14:45:11;6.20;99.90
54788;DHT22;59598;48.112;16.280;2023-04-03T14:47:46;6.40;99.90
54788;DHT22;59598;48.112;16.280;2023-04-03T14:50:22;6.50;99.90
54788;DHT22;59598;48.112;16.280;2023-04-03T14:52:58;6.40;99.90
54788;DHT22;59598;48.112;16.280;2023-04-03T14:55:29;6.10;99.90
54788;DHT22;59598;48.112;16.280;2023-04-03T14:58:01;6.00;1.00
54788;DHT22;59598;48.112;16.280;2023-04-03T15:00:32;6.40;1.00
54788;DHT22;59598;48.112;16.280;2023-04-03T15:03:04;5.80;1.00
54788;DHT22;59598;48.112;16.280;2023-04-03T15:05:38;5.90;1.00
54788;DHT22;59598;48.112;16.280;2023-04-03T15:10:49;6.10;99.90
54788;DHT22;59598;48.112;16.280;2023-04-03T15:13:20;6.10;1.00
54788;DHT22;59598;48.112;16.280;2023-04-03T15:15:52;6.10;1.00
54788;DHT22;59598;48.112;16.280;2023-04-03T15:18:26;5.80;1.00
54788;DHT22;59598;48.112;16.280;2023-04-03T15:20:58;5.50;99.90
54788;DHT22;59598;48.112;16.280;2023-04-03T15:23:29;5.10;1.00
54788;DHT22;59598;48.112;16.280;2023-04-03T15:26:04;5.00;99.90
54788;DHT22;59598;48.112;16.280;2023-04-03T15:28:37;4.80;1.00
54788;DHT22;59598;48.112;16.280;2023-04-03T15:31:09;4.90;1.00
54788;DHT22;59598;48.112;16.280;2023-04-03T15:33:40;5.40;1.00
54788;DHT22;59598;48.112;16.280;2023-04-03T15:36:14;6.70;1.00
54788;DHT22;59598;48.112;16.280;2023-04-03T15:38:48;6.70;1.00
54788;DHT22;59598;48.112;16.280;2023-04-03T15:41:19;6.10;99.90
54788;DHT22;59598;48.112;16.280;2023-04-03T15:43:56;5.60;99.90
54788;DHT22;59598;48.112;16.280;2023-04-03T15:46:30;5.40;99.90
54788;DHT22;59598;48.112;16.280;2023-04-03T15:49:06;5.30;99.90
54788;DHT22;59598;48.112;16.280;2023-04-03T15:51:37;5.30;99.90
54788;DHT22;59598;48.112;16.280;2023-04-03T15:54:08;5.20;99.90
54788;DHT22;59598;48.112;16.280;2023-04-03T15:56:40;5.20;99.90
54788;DHT22;59598;48.112;16.280;2023-04-03T15:59:13;5.00;99.90
54788;DHT22;59598;48.112;16.280;2023-04-03T16:01:47;4.90;99.90
54788;DHT22;59598;48.112;16.280;2023-04-03T16:04:22;4.90;99.90
54788;DHT22;59598;48.112;16.280;2023-04-03T16:06:56;4.80;99.90
54788;DHT22;59598;48.112;16.280;2023-04-03T16:09:27;4.80;99.90
54788;DHT22;59598;48.112;16.280;2023-04-03T16:11:59;4.80;99.90
54788;DHT22;59598;48.112;16.280;2023-04-03T16:14:31;5.00;99.90
54788;DHT22;59598;48.112;16.280;2023-04-03T16:17:05;5.00;99.90
54788;DHT22;59598;48.112;16.280;2023-04-03T16:19:41;4.90;99.90
54788;DHT22;59598;48.112;16.280;2023-04-03T16:22:12;4.80;99.90
54788;DHT22;59598;48.112;16.280;2023-04-03T16:24:46;4.70;99.90
54788;DHT22;59598;48.112;16.280;2023-04-03T16:27:17;4.70;99.90
54788;DHT22;59598;48.112;16.280;2023-04-03T16:29:48;4.50;99.90
54788;DHT22;59598;48.112;16.280;2023-04-03T16:32:24;4.50;99.90
54788;DHT22;59598;48.112;16.280;2023-04-03T16:34:58;4.50;99.90
54788;DHT22;59598;48.112;16.280;2023-04-03T16:37:29;4.60;99.90
54788;DHT22;59598;48.112;16.280;2023-04-03T16:40:04;4.60;67.70
54788;DHT22;59598;48.112;16.280;2023-04-03T16:42:41;4.50;11.60
54788;DHT22;59598;48.112;16.280;2023-04-03T16:45:15;4.50;99.90
54788;DHT22;59598;48.112;16.280;2023-04-03T16:47:48;4.40;16.90
54788;DHT22;59598;48.112;16.280;2023-04-03T16:50:21;4.40;99.90
54788;DHT22;59598;48.112;16.280;2023-04-03T16:52:57;4.40;99.90
54788;DHT22;59598;48.112;16.280;2023-04-03T16:55:33;4.40;99.90
54788;DHT22;59598;48.112;16.280;2023-04-03T16:58:07;4.30;41.30
54788;DHT22;59598;48.112;16.280;2023-04-03T17:00:41;4.30;99.90
54788;DHT22;59598;48.112;16.280;2023-04-03T17:03:14;4.30;99.90
54788;DHT22;59598;48.112;16.280;2023-04-03T17:05:51;4.30;80.60
54788;DHT22;59598;48.112;16.280;2023-04-03T17:08:24;4.20;99.90
54788;DHT22;59598;48.112;16.280;2023-04-03T17:11:00;4.20;99.90
54788;DHT22;59598;48.112;16.280;2023-04-03T17:13:39;4.20;99.90
54788;DHT22;59598;48.112;16.280;2023-04-03T17:16:13;4.20;99.90
54788;DHT22;59598;48.112;16.280;2023-04-03T17:18:47;4.20;99.90
54788;DHT22;59598;48.112;16.280;2023-04-03T17:21:19;4.10;99.90
54788;DHT22;59598;48.112;16.280;2023-04-03T17:23:56;4.10;99.90
54788;DHT22;59598;48.112;16.280;2023-04-03T17:26:34;4.10;99.90
54788;DHT22;59598;48.112;16.280;2023-04-03T17:29:10;4.10;99.90
54788;DHT22;59598;48.112;16.280;2023-04-03T17:31:42;4.00;99.90
54788;DHT22;59598;48.112;16.280;2023-04-03T17:34:16;4.00;99.90
54788;DHT22;59598;48.112;16.280;2023-04-03T17:36:50;4.00;99.90
54788;DHT22;59598;48.112;16.280;2023-04-03T17:39:21;4.00;18.70
54788;DHT22;59598;48.112;16.280;2023-04-03T17:41:54;4.00;99.90
54788;DHT22;59598;48.112;16.280;2023-04-03T17:44:26;3.90;14.70
54788;DHT22;59598;48.112;16.280;2023-04-03T17:46:57;3.90;19.70
54788;DHT22;59598;48.112;16.280;2023-04-03T17:49:31;3.90;61.10
54788;DHT22;59598;48.112;16.280;2023-04-03T17:52:05;3.90;99.90
54788;DHT22;59598;48.112;16.280;2023-04-03T17:54:36;3.90;99.90